x

Buoy F01 - West Penobscot Bay (44033) Wave Buoy

2:04 - Thu 23rd Feb 2017 All times are EST. -5 hours from GMT.

  • Sig Wave height 2.6ft
  • Peak Period 11s
  • Wind
    11mph, 13mph gusts
  • Sea Temp 37°f
  • Air Temp 39°f
  • Sea Pressure 1007.6mb
  • Buoy F01 - West Penobscot Bay
  • Buoy F01 - West Penobscot Bay

More Historic Weather Station data

Upgrade to MSW Pro to gain access to the past 30 days of data for over 8000 Wavebouys and Weather Stations around the globe.

Join Pro

Comparision Forecast

View Surf forecast
   
jeu. 02/23 2:04 2.5ft 11s 11 13 mph 1007.6mb 37f 39f
1:04 1.6ft 4s 9
mph
1008.3mb 37f 39f
12:04 1.3ft 3s 9 11 mph 1009.3mb 37f 38f
11:04 1ft 4s 9 11 mph 1009.9mb 37f 39f
10:04 1.6ft 11s 7 9 mph 1010.2mb 37f 40f
9:04 1.6ft 11s 4
mph
1010.6mb 37f 40f
8:04 1.6ft 11s 2
mph
1011.3mb 37f 37f
7:04 1.6ft 11s 4
mph
1011.3mb 37f 36f
6:04 1.3ft 11s 2
mph
1010.9mb 36f 36f
5:04 1.3ft 8s 4
mph
1011.1mb 37f 36f
mer. 02/22 5:04 2.5ft 5s 9 11 mph 1015.9mb 36f 38f
4:04 2.5ft 5s 11 13 mph 1016.3mb 36f 38f
3:04 2.5ft 5s 11
mph
1016.5mb 36f 38f
2:04 2.5ft 4s 11
mph
1017.2mb 36f 38f
1:04 2ft 4s 11 13 mph 1018.1mb 36f 38f
12:04 1.6ft 4s 13 16 mph 1018.7mb 36f 37f
mar. 02/21 11:04 1.3ft 4s 13 16 mph 1019.3mb 36f 37f
10:04 1.3ft 3s 13 16 mph 1020.5mb 36f 36f
9:04 1ft 3s 11 16 mph 1020.5mb 36f 35f
8:04 1ft 3s 11 13 mph 1021.4mb 36f 35f
7:04 0.7ft  -  11
mph
1022.4mb 36f 34f
6:04 0.7ft  -  9 11 mph 1023mb 36f 33f
5:04 0.7ft  -  9 11 mph 1023mb 36f 33f
4:04 0.7ft  -  9 11 mph 1024.1mb 36f 33f
3:04 0.7ft  -  7 9 mph 1024.6mb 37f 33f
2:04 0.7ft  -  7 9 mph 1024.9mb 37f 33f
1:04 0.7ft  -  4
mph
1025.6mb 37f 33f
12:04 0.3ft  -  7
mph
1026.5mb 37f 31f
11:04 0.7ft  -  7 9 mph 1027.6mb 36f 30f
10:04 1ft 3s 11 13 mph 1028mb 36f 29f
9:04 1ft 2s 13 18 mph 1028.3mb 36f 29f
8:04 1.3ft 3s 13 16 mph 1028.4mb 36f 29f
7:04 1.6ft 3s 16 20 mph 1028.1mb 36f 30f
6:04 1.6ft 3s 16 20 mph 1027.9mb 36f 30f
5:04 1.6ft 3s 16 20 mph 1027.2mb 36f 31f
4:04 2ft 3s 18 22 mph 1027.3mb 36f 31f
3:04 2.5ft 4s 20 25 mph 1027.5mb 36f 31f
2:04 2.5ft 4s 22 25 mph 1027.8mb 36f 32f
1:04 2.5ft 4s 20 25 mph 1027.5mb 36f 32f
12:04 2.5ft 3s 25 27 mph 1026.8mb 36f 34f
lun. 02/20 11:04 1.6ft 3s 18 22 mph 1025.9mb 36f 35f
10:04 2ft 3s 20 22 mph 1025.3mb 36f 36f
9:04 1.6ft 3s 18 22 mph 1025.2mb 36f 36f
8:04 1.6ft 3s 18 22 mph 1024.6mb 37f 37f
7:04 1.6ft 3s 18 20 mph 1023.6mb 37f 38f
6:04 1.6ft 3s 16 20 mph 1023.2mb 37f 39f
5:04 1.6ft 3s 16 18 mph 1022.3mb 37f 39f
4:04 2.5ft 8s 18 22 mph 1021.3mb 37f 39f
3:04 1.3ft 3s 13 16 mph 1020.3mb 37f 39f
2:04 1.6ft 8s 16 18 mph 1019.2mb 37f 38f
1:04 1.6ft 3s 18 20 mph 1019.2mb 37f 37f
12:04 2ft 8s 18 20 mph 1019.1mb 37f 37f
11:04 1.6ft 3s 18 22 mph 1019.1mb 37f 36f
10:04 2ft 3s 20 25 mph 1019mb 36f 35f
9:04 1.6ft 3s 22 27 mph 1018.5mb 36f 35f
8:04 1.6ft 3s 16 20 mph 1017.9mb 36f 35f
7:04 1.3ft 3s 20 25 mph 1017mb 36f 36f
6:04 2.5ft 8s 20 27 mph 1015.6mb 36f 36f
5:04 1.3ft 3s 16 18 mph 1014.7mb 36f 36f
4:04 2.5ft 8s 18 20 mph 1013.7mb 36f 37f
3:04 1.6ft 3s 16 20 mph 1012.7mb 36f 37f
2:04 1.3ft 3s 16 22 mph 1012.2mb 36f 38f
1:04 1.3ft 3s 16 18 mph 1011.7mb 36f 38f
12:04 1.3ft 5s 18 22 mph 1011mb 36f 39f
dim. 02/19 11:04 1.6ft 3s 11
mph
1010.6mb 36f 39f
10:04 1.6ft 6s 13 18 mph 1010mb 36f 40f
9:04 1.6ft 6s 4 7 mph 1008.7mb 36f 41f